Terminal Aerodrome Forecast
Issued by NWS Detroit/Pontiac, MI

Home | Current Version | Previous Version | Text Only | Print | Product List | Glossary On
Versions: 1 2 3 4 5 6 7 8 9 10 11 12 13 14 15 16 17 18 19 20 21 22 23 24
361
FTUS43 KDTX 230902 AAA
TAFDTW
TAF AMD
KDTW 230902Z 2309/2412 VRB03KT P6SM SKC
     FM232100 16006KT P6SM SKC
     FM240600 03008KT P6SM SKC=

USA.gov is the U.S. government's official web portal to all federal, state and local government web resources and services.